Time;durP1;ratioP1;P1;durP2;ratioP2;P2;SDS_P1;SDS_P2;PMS_P1;PMS_P2;Temp;Humidity;BMP_temperature;BMP_pressure;BME280_temperature;BME280_humidity;BME280_pressure;Samples;Min_cycle;Max_cycle;Signal;HPM_P1;HPM_P2
2022/03/14 00:01:17;;;;;;;16.90;10.97;;;;;;;2.70;100.00;95345.00;5153907;27;20186;-49
2022/03/14 00:03:47;;;;;;;16.57;10.77;;;;;;;2.69;100.00;95357.69;5134377;27;20285;-49
2022/03/14 00:06:13;;;;;;;17.00;11.23;;;;;;;2.67;100.00;95359.97;5133442;27;20218;-53
2022/03/14 00:08:41;;;;;;;16.00;10.70;;;;;;;2.64;100.00;95360.69;5132768;27;20210;-53
2022/03/14 00:11:06;;;;;;;17.53;11.20;;;;;;;2.60;100.00;95365.22;5133695;27;20262;-55
2022/03/14 00:13:32;;;;;;;17.37;11.20;;;;;;;2.57;100.00;95360.53;5133092;27;20229;-56
2022/03/14 00:15:58;;;;;;;16.77;10.80;;;;;;;2.53;100.00;95367.75;5132949;27;20190;-54
2022/03/14 00:18:26;;;;;;;18.60;11.37;;;;;;;2.46;100.00;95373.00;5132613;27;20191;-47
2022/03/14 00:20:51;;;;;;;16.90;11.03;;;;;;;2.43;100.00;95365.59;5122292;28;20190;-46
2022/03/14 00:23:17;;;;;;;19.30;11.30;;;;;;;2.37;100.00;95367.00;5119069;28;20194;-46
2022/03/14 00:25:42;;;;;;;18.73;11.30;;;;;;;2.33;100.00;95379.63;5119002;28;20222;-46
2022/03/14 00:28:08;;;;;;;17.57;10.93;;;;;;;2.35;100.00;95390.03;5118924;28;20218;-47
2022/03/14 00:30:33;;;;;;;15.63;11.00;;;;;;;2.37;100.00;95387.78;5137249;28;20282;-46
2022/03/14 00:32:59;;;;;;;16.17;10.83;;;;;;;2.35;100.00;95390.84;5118833;28;20183;-46
2022/03/14 00:35:25;;;;;;;15.53;10.67;;;;;;;2.31;100.00;95389.97;5119056;28;20196;-58
2022/03/14 00:37:50;;;;;;;17.07;10.60;;;;;;;2.33;100.00;95401.16;5118744;28;20193;-61
2022/03/14 00:40:16;;;;;;;18.27;10.90;;;;;;;2.35;100.00;95409.69;5118571;28;20183;-61
2022/03/14 00:42:41;;;;;;;16.07;10.63;;;;;;;2.35;100.00;95414.28;5118597;28;20187;-61
2022/03/14 00:45:07;;;;;;;15.27;10.67;;;;;;;2.34;100.00;95416.19;5119166;28;20574;-60
2022/03/14 00:47:33;;;;;;;14.43;10.57;;;;;;;2.35;100.00;95427.75;5119171;28;20240;-60
2022/03/14 00:49:59;;;;;;;18.13;10.33;;;;;;;2.33;100.00;95425.41;5118661;28;20206;-60
2022/03/14 00:52:24;;;;;;;16.17;10.17;;;;;;;2.30;100.00;95426.09;5119267;28;20199;-60
2022/03/14 00:54:49;;;;;;;14.80;10.73;;;;;;;2.24;100.00;95427.53;5118464;28;20352;-61
2022/03/14 00:57:15;;;;;;;17.63;11.10;;;;;;;2.24;100.00;95434.81;5118636;28;20183;-51
2022/03/14 00:59:43;;;;;;;17.30;10.50;;;;;;;2.20;100.00;95423.97;5118898;28;20189;-53
2022/03/14 01:02:09;;;;;;;15.73;10.43;;;;;;;2.15;100.00;95434.97;5118792;28;20209;-53
2022/03/14 01:04:35;;;;;;;15.67;10.50;;;;;;;2.09;100.00;95433.69;5118229;28;20183;-52
2022/03/14 01:07:02;;;;;;;18.30;11.07;;;;;;;2.07;100.00;95427.88;5118582;28;20207;-51
2022/03/14 01:09:31;;;;;;;18.97;11.50;;;;;;;2.05;100.00;95440.91;5136504;28;20203;-51
2022/03/14 01:11:56;;;;;;;16.27;10.77;;;;;;;2.02;100.00;95441.59;5118271;28;20176;-60
2022/03/14 01:14:22;;;;;;;17.57;10.67;;;;;;;1.98;100.00;95448.81;5118448;28;20191;-53
2022/03/14 01:16:48;;;;;;;18.90;11.47;;;;;;;1.96;100.00;95448.38;5118602;28;20214;-44
2022/03/14 01:19:14;;;;;;;20.13;11.77;;;;;;;1.99;100.00;95447.69;5118355;28;20668;-44
2022/03/14 01:21:39;;;;;;;17.90;11.10;;;;;;;1.99;100.00;95446.88;5118513;28;20215;-45
2022/03/14 01:24:05;;;;;;;20.70;11.17;;;;;;;1.98;100.00;95453.41;5118069;28;20320;-46
2022/03/14 01:26:32;;;;;;;17.50;11.27;;;;;;;1.97;100.00;95455.31;5118215;28;20186;-44
2022/03/14 01:28:58;;;;;;;16.67;10.40;;;;;;;1.99;100.00;95463.84;5118289;28;20207;-44
2022/03/14 01:31:23;;;;;;;17.20;10.37;;;;;;;1.99;100.00;95463.84;5116935;28;20526;-46
2022/03/14 01:33:48;;;;;;;15.43;10.83;;;;;;;1.99;100.00;95466.53;5117719;28;20218;-50
2022/03/14 01:36:13;;;;;;;14.90;10.33;;;;;;;1.97;100.00;95466.06;5118155;28;20187;-48
2022/03/14 01:38:39;;;;;;;17.40;10.97;;;;;;;1.96;100.00;95480.66;5118050;28;20195;-49
2022/03/14 01:41:04;;;;;;;17.23;11.23;;;;;;;1.95;100.00;95479.13;5117546;28;20611;-47
2022/03/14 01:43:30;;;;;;;19.33;10.97;;;;;;;1.92;100.00;95477.09;5118321;28;20194;-49
2022/03/14 01:45:56;;;;;;;18.07;11.93;;;;;;;1.89;100.00;95485.09;5117501;28;20183;-45
2022/03/14 01:48:22;;;;;;;17.13;11.03;;;;;;;1.86;100.00;95486.56;5117986;28;20199;-54
2022/03/14 01:50:47;;;;;;;19.13;11.23;;;;;;;1.82;100.00;95491.06;5117574;28;20190;-56
2022/03/14 01:53:13;;;;;;;17.17;10.87;;;;;;;1.81;100.00;95497.59;5117819;28;20522;-44
2022/03/14 01:55:38;;;;;;;18.13;10.53;;;;;;;1.80;100.00;95487.16;5117449;28;20235;-44
2022/03/14 01:58:03;;;;;;;16.57;10.53;;;;;;;1.83;100.00;95487.28;5117474;28;20187;-44
2022/03/14 02:00:29;;;;;;;17.27;10.20;;;;;;;1.85;100.00;95498.47;5117498;28;20175;-43
2022/03/14 02:02:55;;;;;;;17.20;10.33;;;;;;;1.86;100.00;95505.41;5117259;28;20572;-44
2022/03/14 02:05:20;;;;;;;15.53;10.43;;;;;;;1.89;100.00;95518.19;5117563;28;20273;-43
2022/03/14 02:07:46;;;;;;;16.80;10.30;;;;;;;1.92;100.00;95522.09;5117280;28;20262;-47
2022/03/14 02:10:11;;;;;;;17.37;11.37;;;;;;;1.96;100.00;95512.97;5117659;28;20244;-47
2022/03/14 02:12:36;;;;;;;15.67;10.47;;;;;;;1.92;100.00;95514.78;5117609;28;20186;-45
2022/03/14 02:15:02;;;;;;;16.07;9.83;;;;;;;1.98;100.00;95509.94;5117106;28;20186;-46
2022/03/14 02:17:28;;;;;;;14.10;9.80;;;;;;;2.01;100.00;95542.31;5117761;28;20239;-45
2022/03/14 02:19:53;;;;;;;15.90;9.97;;;;;;;2.10;100.00;95553.75;5117602;28;20198;-46
2022/03/14 02:22:19;;;;;;;20.10;10.50;;;;;;;2.21;100.00;95567.47;5117097;28;20182;-46
2022/03/14 02:24:46;;;;;;;17.43;11.50;;;;;;;2.31;100.00;95569.66;5117345;28;20195;-45
2022/03/14 02:27:13;;;;;;;13.77;9.47;;;;;;;2.37;100.00;95571.75;5117244;28;20266;-56
2022/03/14 02:29:39;;;;;;;14.50;10.37;;;;;;;2.44;100.00;95587.34;5116887;28;20231;-46
2022/03/14 02:32:06;;;;;;;13.40;9.70;;;;;;;2.51;100.00;95593.66;5116967;28;20187;-46
2022/03/14 02:34:31;;;;;;;16.87;10.73;;;;;;;2.58;100.00;95593.84;5117054;28;20236;-45
2022/03/14 02:36:57;;;;;;;16.73;10.07;;;;;;;2.66;100.00;95589.44;5116872;28;20270;-47
2022/03/14 02:39:22;;;;;;;15.67;9.33;;;;;;;2.74;100.00;95597.31;5117294;28;20213;-47
2022/03/14 02:41:47;;;;;;;17.63;11.80;;;;;;;2.81;100.00;95597.50;5116564;28;20185;-46
2022/03/14 02:44:13;;;;;;;18.53;12.13;;;;;;;2.88;100.00;95594.97;5116438;28;20183;-41
2022/03/14 02:46:39;;;;;;;17.77;10.63;;;;;;;2.97;100.00;95592.91;5117077;28;20236;-44
2022/03/14 02:49:09;;;;;;;20.57;10.87;;;;;;;3.04;100.00;95595.75;5116648;28;20303;-44
2022/03/14 02:51:38;;;;;;;13.63;9.47;;;;;;;3.08;100.00;95607.41;5116728;28;20187;-43
2022/03/14 02:54:04;;;;;;;13.23;9.40;;;;;;;3.14;100.00;95619.47;5116531;28;20190;-44
2022/03/14 02:56:29;;;;;;;14.73;9.60;;;;;;;3.17;100.00;95626.88;5116544;28;20194;-44
2022/03/14 02:58:55;;;;;;;13.23;8.83;;;;;;;3.22;100.00;95634.72;5116776;28;20273;-44
2022/03/14 03:01:23;;;;;;;14.73;9.60;;;;;;;3.31;100.00;95638.00;5116987;28;20190;-43
2022/03/14 03:03:49;;;;;;;12.33;8.90;;;;;;;3.47;100.00;95641.44;5116647;28;20300;-42
2022/03/14 03:06:15;;;;;;;13.20;8.60;;;;;;;3.62;100.00;95649.88;5116591;28;20203;-52
2022/03/14 03:08:44;;;;;;;14.03;8.93;;;;;;;3.79;100.00;95646.78;5116431;28;20246;-57
2022/03/14 03:11:11;;;;;;;13.47;8.50;;;;;;;3.98;100.00;95649.50;5116428;28;20175;-52
2022/03/14 03:13:40;;;;;;;13.17;8.50;;;;;;;4.06;100.00;95645.78;5116531;28;20179;-56
2022/03/14 03:16:07;;;;;;;11.57;8.13;;;;;;;4.22;100.00;95660.03;5116249;28;20191;-56
2022/03/14 03:18:32;;;;;;;11.10;7.87;;;;;;;4.39;100.00;95670.41;5116483;28;20190;-55
2022/03/14 03:20:57;;;;;;;11.87;7.73;;;;;;;4.67;100.00;95660.13;5116285;28;20183;-59
2022/03/14 03:23:23;;;;;;;11.20;7.03;;;;;;;5.05;100.00;95676.25;5116368;28;20186;-49
2022/03/14 03:25:48;;;;;;;12.10;7.23;;;;;;;5.45;100.00;95685.44;5116210;28;20183;-51
2022/03/14 03:28:13;;;;;;;11.23;7.47;;;;;;;5.75;100.00;95688.22;5116359;28;20209;-54
2022/03/14 03:30:39;;;;;;;11.77;7.33;;;;;;;6.09;100.00;95692.63;5116240;28;20188;-55
2022/03/14 03:33:04;;;;;;;15.40;7.67;;;;;;;6.41;100.00;95693.81;5116703;28;20185;-52
2022/03/14 03:35:29;;;;;;;10.57;7.87;;;;;;;6.56;100.00;95700.97;5116503;28;20190;-50
2022/03/14 03:37:55;;;;;;;13.53;7.80;;;;;;;6.78;100.00;95703.56;5116112;28;20192;-53
2022/03/14 03:40:20;;;;;;;11.57;7.60;;;;;;;6.91;100.00;95714.94;5115704;28;20186;-54
2022/03/14 03:42:46;;;;;;;20.20;8.83;;;;;;;7.01;100.00;95722.41;5116053;28;20231;-61
2022/03/14 03:45:13;;;;;;;11.10;7.73;;;;;;;7.16;100.00;95729.56;5115867;28;20192;-61
2022/03/14 03:47:39;;;;;;;14.10;8.40;;;;;;;7.25;100.00;95743.59;5115961;28;20192;-60
2022/03/14 03:50:05;;;;;;;15.43;8.50;;;;;;;7.36;100.00;95744.50;5115999;28;20215;-60
2022/03/14 03:52:30;;;;;;;15.63;9.57;;;;;;;7.45;100.00;95752.34;5134002;28;20203;-61
2022/03/14 03:54:56;;;;;;;13.67;9.03;;;;;;;7.54;100.00;95756.31;5116494;28;20193;-60
2022/03/14 03:57:21;;;;;;;15.07;9.20;;;;;;;7.62;100.00;95757.94;5119512;28;20213;-55
2022/03/14 03:59:47;;;;;;;16.43;9.53;;;;;;;7.72;100.00;95776.28;5119475;28;20191;-52
2022/03/14 04:02:12;;;;;;;19.00;9.90;;;;;;;7.83;100.00;95779.84;5119718;28;20213;-44
2022/03/14 04:04:39;;;;;;;16.93;10.20;;;;;;;7.94;100.00;95786.16;5119357;28;20195;-45
2022/03/14 04:07:06;;;;;;;17.23;11.30;;;;;;;8.03;100.00;95789.38;5119347;28;20186;-44
2022/03/14 04:09:32;;;;;;;19.50;10.27;;;;;;;8.10;100.00;95792.13;5119264;28;20222;-46
2022/03/14 04:11:57;;;;;;;17.70;11.27;;;;;;;8.07;100.00;95806.47;5119285;28;20270;-45
2022/03/14 04:14:22;;;;;;;17.43;11.27;;;;;;;8.05;100.00;95792.47;5119376;28;20183;-44
2022/03/14 04:16:48;;;;;;;19.10;11.70;;;;;;;8.07;100.00;95803.75;5119511;28;20191;-51
2022/03/14 04:19:16;;;;;;;20.27;12.50;;;;;;;8.09;100.00;95815.03;5119356;28;20194;-61
2022/03/14 04:21:43;;;;;;;21.03;12.57;;;;;;;8.04;100.00;95823.53;5118952;28;20203;-61
2022/03/14 04:24:09;;;;;;;20.43;11.77;;;;;;;8.00;100.00;95830.91;5118932;28;20190;-61
2022/03/14 04:26:34;;;;;;;18.63;12.10;;;;;;;7.94;100.00;95834.34;5119156;28;20179;-60
2022/03/14 04:29:00;;;;;;;17.43;12.20;;;;;;;7.94;100.00;95842.50;5118957;28;20203;-60
2022/03/14 04:31:25;;;;;;;21.60;12.67;;;;;;;7.84;100.00;95843.19;5118850;28;20182;-61
2022/03/14 04:33:51;;;;;;;19.00;12.33;;;;;;;7.74;100.00;95847.34;5119505;28;20183;-61
2022/03/14 04:36:16;;;;;;;23.00;13.53;;;;;;;7.66;100.00;95851.16;5137470;28;20258;-53
2022/03/14 04:38:41;;;;;;;20.07;13.23;;;;;;;7.60;100.00;95860.81;5118786;28;20276;-44
2022/03/14 04:41:07;;;;;;;21.27;12.70;;;;;;;7.57;100.00;95858.81;5118431;28;20182;-44
2022/03/14 04:43:33;;;;;;;20.03;13.00;;;;;;;7.56;100.00;95862.69;5118539;28;20190;-44
2022/03/14 04:45:58;;;;;;;22.87;14.23;;;;;;;7.51;100.00;95873.91;5118620;28;20559;-44
2022/03/14 04:48:23;;;;;;;21.43;13.40;;;;;;;7.47;100.00;95870.34;5118695;28;20206;-44
2022/03/14 04:50:50;;;;;;;22.60;13.73;;;;;;;7.44;100.00;95876.53;5118815;28;20202;-44
2022/03/14 04:53:17;;;;;;;19.73;13.07;;;;;;;7.40;100.00;95883.88;5118539;28;20275;-56
2022/03/14 04:55:42;;;;;;;21.23;13.83;;;;;;;7.40;100.00;95889.31;5119083;28;20565;-57
2022/03/14 04:58:12;;;;;;;19.97;13.53;;;;;;;7.37;100.00;95909.06;5118838;28;20189;-55
2022/03/14 05:00:38;;;;;;;19.23;13.77;;;;;;;7.34;100.00;95914.44;5136822;28;20700;-56
2022/03/14 05:03:05;;;;;;;21.40;13.47;;;;;;;7.27;100.00;95909.69;5118467;28;20197;-53
2022/03/14 05:05:31;;;;;;;23.00;13.87;;;;;;;7.20;100.00;95925.91;5118443;27;20251;-55
2022/03/14 05:07:56;;;;;;;19.70;12.93;;;;;;;7.13;100.00;95925.81;5118438;28;20175;-55
2022/03/14 05:10:22;;;;;;;20.13;13.07;;;;;;;7.09;100.00;95935.84;5118043;28;20194;-57
2022/03/14 05:12:48;;;;;;;19.13;12.23;;;;;;;7.10;100.00;95934.69;5119114;28;20220;-52
2022/03/14 05:15:16;;;;;;;18.87;11.80;;;;;;;7.05;100.00;95945.06;5118787;28;20175;-60
2022/03/14 05:17:41;;;;;;;19.00;12.47;;;;;;;7.01;100.00;95939.63;5118257;28;20187;-60
2022/03/14 05:20:08;;;;;;;17.40;11.70;;;;;;;7.07;100.00;95946.31;5118426;28;20179;-61
2022/03/14 05:22:41;;;;;;;18.83;12.10;;;;;;;7.08;100.00;95944.34;5118631;28;20640;-62
2022/03/14 05:25:07;;;;;;;16.73;10.90;;;;;;;7.12;100.00;95953.31;5118455;28;20186;-61
2022/03/14 05:27:32;;;;;;;16.00;10.73;;;;;;;7.17;100.00;95953.78;5117867;28;20173;-60
2022/03/14 05:29:57;;;;;;;14.53;10.30;;;;;;;7.24;100.00;95964.00;5117985;28;20203;-58
2022/03/14 05:32:23;;;;;;;14.80;9.53;;;;;;;7.28;100.00;95973.72;5118605;28;20270;-62
2022/03/14 05:34:48;;;;;;;15.10;10.43;;;;;;;7.37;100.00;95979.69;5117822;28;20179;-62
2022/03/14 05:37:14;;;;;;;13.40;9.10;;;;;;;7.42;100.00;95981.28;5117948;28;20186;-60
2022/03/14 05:39:39;;;;;;;14.63;8.70;;;;;;;7.48;100.00;95994.19;5117499;28;20224;-62
2022/03/14 05:42:04;;;;;;;10.37;7.33;;;;;;;7.54;100.00;95994.66;5135689;28;20585;-61
2022/03/14 05:44:30;;;;;;;11.97;7.90;;;;;;;7.58;100.00;95993.53;5117831;28;20235;-62
2022/03/14 05:46:55;;;;;;;9.00;7.13;;;;;;;7.61;100.00;96006.38;5117633;28;20281;-62
2022/03/14 05:49:21;;;;;;;11.70;7.70;;;;;;;7.77;100.00;95998.84;5118036;28;20247;-60
2022/03/14 05:51:46;;;;;;;10.97;7.07;;;;;;;7.83;100.00;96016.38;5117935;28;20179;-55
2022/03/14 05:54:11;;;;;;;10.07;7.17;;;;;;;7.96;100.00;96011.47;5117988;28;20182;-55
2022/03/14 05:56:37;;;;;;;9.90;6.93;;;;;;;8.17;100.00;96017.97;5117444;28;20547;-55
2022/03/14 05:59:02;;;;;;;12.17;7.13;;;;;;;8.26;100.00;96017.69;5117582;28;20224;-55
2022/03/14 06:01:27;;;;;;;9.37;6.43;;;;;;;8.35;100.00;96024.41;5117476;28;20206;-55
2022/03/14 06:03:53;;;;;;;9.30;7.13;;;;;;;8.65;100.00;96022.38;5117461;28;20174;-55
2022/03/14 06:06:19;;;;;;;9.50;6.80;;;;;;;9.38;100.00;96027.63;5117219;28;20210;-46
2022/03/14 06:08:44;;;;;;;9.27;6.00;;;;;;;10.05;100.00;96027.97;5117183;28;20256;-49
2022/03/14 06:11:12;;;;;;;9.33;5.67;;;;;;;10.62;100.00;96037.94;5117108;28;20248;-46
2022/03/14 06:13:39;;;;;;;9.60;6.13;;;;;;;11.38;100.00;96044.63;5117211;28;20193;-45
2022/03/14 06:16:05;;;;;;;14.73;8.57;;;;;;;11.54;100.00;96041.47;5117185;28;20226;-47
2022/03/14 06:18:30;;;;;;;8.97;5.97;;;;;;;11.60;100.00;96056.31;5116904;28;20250;-45
2022/03/14 06:20:56;;;;;;;9.47;6.00;;;;;;;11.55;100.00;96062.19;5117108;28;20584;-49
2022/03/14 06:23:22;;;;;;;5.77;5.10;;;;;;;12.07;100.00;96075.00;5117409;28;20183;-47
2022/03/14 06:25:49;;;;;;;9.03;5.87;;;;;;;12.18;100.00;96078.50;5117194;28;20189;-46
2022/03/14 06:28:14;;;;;;;8.50;6.00;;;;;;;12.43;100.00;96081.91;5116819;28;20207;-44
2022/03/14 06:30:40;;;;;;;6.83;5.63;;;;;;;13.23;100.00;96091.69;5116461;28;20290;-46
2022/03/14 06:33:05;;;;;;;6.27;4.80;;;;;;;13.61;100.00;96095.28;5117303;28;20214;-46
2022/03/14 06:35:30;;;;;;;6.50;5.20;;;;;;;13.97;100.00;96091.03;5117029;28;20278;-45
2022/03/14 06:37:56;;;;;;;6.60;5.00;;;;;;;14.28;100.00;96093.47;5116905;28;20249;-44
2022/03/14 06:40:21;;;;;;;6.50;5.00;;;;;;;14.44;98.83;96096.44;5116437;28;20183;-45
2022/03/14 06:42:50;;;;;;;4.93;4.40;;;;;;;15.13;94.17;96096.72;5116552;28;20175;-48
2022/03/14 06:45:23;;;;;;;5.00;4.10;;;;;;;15.67;89.79;96103.75;5117260;28;20179;-58
2022/03/14 06:47:49;;;;;;;7.33;5.20;;;;;;;16.20;83.61;96108.31;5117189;28;20183;-60
2022/03/14 06:50:14;;;;;;;6.20;4.30;;;;;;;16.15;83.63;96106.88;5116336;28;20206;-59
2022/03/14 06:52:40;;;;;;;7.53;4.33;;;;;;;16.12;82.23;96098.63;5116826;28;20190;-55
2022/03/14 06:55:06;;;;;;;4.43;3.93;;;;;;;16.19;81.29;96112.28;5116757;28;20191;-58
2022/03/14 06:57:31;;;;;;;9.13;7.03;;;;;;;16.95;78.22;96113.97;5116711;28;20198;-58
2022/03/14 06:59:57;;;;;;;11.07;7.40;;;;;;;17.00;75.54;96121.75;5116422;28;20230;-58
2022/03/14 07:02:26;;;;;;;7.63;5.03;;;;;;;17.68;72.97;96117.84;5116395;28;20203;-59
2022/03/14 07:04:51;;;;;;;5.80;5.13;;;;;;;18.07;70.32;96123.19;5116404;28;20256;-60
2022/03/14 07:07:16;;;;;;;7.03;4.10;;;;;;;17.86;70.65;96122.94;5116557;28;20221;-60
2022/03/14 07:09:42;;;;;;;3.87;3.40;;;;;;;18.46;66.90;96124.97;5116237;28;20289;-58
2022/03/14 07:12:10;;;;;;;8.43;6.00;;;;;;;18.99;64.65;96121.50;5116468;28;20270;-59
2022/03/14 07:14:36;;;;;;;5.53;4.50;;;;;;;19.48;62.22;96120.03;5116177;28;20198;-59
2022/03/14 07:17:01;;;;;;;9.80;4.50;;;;;;;19.75;60.98;96128.69;5115949;28;20183;-58
2022/03/14 07:19:26;;;;;;;7.43;6.33;;;;;;;20.17;56.73;96116.22;5116082;28;20195;-55
2022/03/14 07:21:52;;;;;;;11.10;6.80;;;;;;;20.00;57.25;96117.56;5116428;28;20186;-59
2022/03/14 07:24:17;;;;;;;4.97;3.20;;;;;;;19.72;57.11;96129.56;5116081;28;20179;-51
2022/03/14 07:26:42;;;;;;;4.40;4.00;;;;;;;19.64;59.06;96139.34;5116342;28;20272;-52
2022/03/14 07:29:08;;;;;;;3.33;3.03;;;;;;;20.22;56.07;96135.09;5116139;28;20206;-54
2022/03/14 07:31:35;;;;;;;7.30;3.50;;;;;;;19.67;56.79;96141.22;5137289;28;20182;-53
2022/03/14 07:34:01;;;;;;;5.23;3.30;;;;;;;19.54;56.65;96145.97;5119575;28;20202;-57
2022/03/14 07:36:26;;;;;;;4.80;2.90;;;;;;;19.37;56.78;96152.81;5119725;28;20179;-54
2022/03/14 07:38:52;;;;;;;6.33;3.00;;;;;;;20.13;55.57;96148.84;5120037;28;20187;-54
2022/03/14 07:41:17;;;;;;;5.33;3.13;;;;;;;20.62;52.86;96152.72;5120203;28;20182;-54
2022/03/14 07:43:42;;;;;;;3.67;3.20;;;;;;;20.49;53.88;96160.31;5119385;28;20251;-56
2022/03/14 07:46:08;;;;;;;3.03;2.80;;;;;;;20.88;51.66;96167.28;5119738;28;20193;-53
2022/03/14 07:48:34;;;;;;;4.30;3.30;;;;;;;21.62;49.15;96168.88;5119970;28;20203;-55
2022/03/14 07:51:00;;;;;;;3.38;2.85;;;;;;;22.26;45.73;96167.13;5119907;28;20235;-54
2022/03/14 07:53:25;;;;;;;4.43;3.63;;;;;;;21.93;46.27;96172.44;5119842;28;20191;-57
2022/03/14 07:55:52;;;;;;;8.27;4.35;;;;;;;22.05;45.79;96179.91;5119993;28;20271;-57
2022/03/14 07:58:18;;;;;;;8.52;4.07;;;;;;;21.75;46.22;96177.16;5119172;28;20187;-58
2022/03/14 08:00:43;;;;;;;2.92;2.35;;;;;;;20.46;47.81;96177.06;5119334;28;20275;-59
2022/03/14 08:03:08;;;;;;;4.15;2.90;;;;;;;21.15;48.17;96179.41;5119443;28;20195;-60
2022/03/14 08:05:34;;;;;;;4.60;3.10;;;;;;;21.57;47.30;96188.91;5119771;28;20175;-60
2022/03/14 08:08:00;;;;;;;4.38;3.70;;;;;;;22.00;45.36;96186.06;5119032;28;20186;-59
2022/03/14 08:10:26;;;;;;;9.95;8.27;;;;;;;22.66;44.02;96183.78;5118925;28;20203;-61
2022/03/14 08:12:53;;;;;;;5.10;3.15;;;;;;;22.79;43.05;96190.75;5119165;28;20182;-60
2022/03/14 08:15:28;;;;;;;5.72;3.60;;;;;;;22.18;44.74;96199.28;5119195;28;20186;-50
2022/03/14 08:17:55;;;;;;;3.90;2.25;;;;;;;22.44;43.48;96206.16;5119494;28;20179;-60
2022/03/14 08:20:22;;;;;;;5.22;2.17;;;;;;;23.18;41.13;96205.78;5119035;28;20211;-61
2022/03/14 08:22:48;;;;;;;4.95;1.80;;;;;;;23.29;40.56;96211.69;5119275;28;20176;-61
2022/03/14 08:25:14;;;;;;;2.25;1.90;;;;;;;22.88;41.26;96206.72;5119139;28;20175;-61
2022/03/14 08:27:39;;;;;;;2.67;1.90;;;;;;;23.20;40.42;96206.09;5119329;28;20174;-61
2022/03/14 08:30:06;;;;;;;5.07;3.20;;;;;;;22.98;40.34;96208.28;5119179;28;20301;-59
2022/03/14 08:32:34;;;;;;;4.07;2.78;;;;;;;22.54;40.69;96215.34;5119455;28;20204;-57
2022/03/14 08:35:06;;;;;;;2.17;1.73;;;;;;;21.89;41.24;96227.44;5118836;28;20178;-54
2022/03/14 08:37:32;;;;;;;3.35;2.92;;;;;;;22.91;39.72;96216.94;5119526;28;20244;-50
2022/03/14 08:39:57;;;;;;;1.80;1.70;;;;;;;23.80;37.91;96226.47;5118606;28;20183;-48
2022/03/14 08:42:22;;;;;;;1.63;1.40;;;;;;;23.58;38.12;96232.28;5118309;28;20249;-48
2022/03/14 08:44:48;;;;;;;6.05;4.65;;;;;;;24.01;37.62;96231.09;5136745;28;20237;-51
2022/03/14 08:47:13;;;;;;;1.83;1.73;;;;;;;24.01;37.03;96242.28;5119372;28;20247;-49
2022/03/14 08:49:38;;;;;;;2.08;1.30;;;;;;;24.29;36.83;96236.09;5118493;28;20199;-50
2022/03/14 08:52:04;;;;;;;4.05;1.60;;;;;;;24.54;36.93;96237.69;5119130;28;20183;-57
2022/03/14 08:54:29;;;;;;;1.42;1.30;;;;;;;24.08;36.86;96247.53;5118530;28;20179;-59
2022/03/14 08:56:55;;;;;;;3.30;2.95;;;;;;;23.91;36.44;96243.50;5118576;28;20183;-61
2022/03/14 08:59:20;;;;;;;3.72;1.73;;;;;;;22.80;37.91;96252.84;5118391;28;20187;-60
2022/03/14 09:01:45;;;;;;;2.58;1.77;;;;;;;22.50;38.51;96246.09;5118484;27;20251;-60
2022/03/14 09:04:11;;;;;;;1.40;1.30;;;;;;;22.09;39.50;96246.53;5118421;28;20190;-60
2022/03/14 09:06:36;;;;;;;1.95;1.30;;;;;;;22.16;38.74;96249.84;5118719;28;20199;-60
2022/03/14 09:09:03;;;;;;;1.58;1.30;;;;;;;23.17;36.53;96248.84;5117642;28;20589;-60
2022/03/14 09:11:28;;;;;;;1.70;1.60;;;;;;;22.69;37.75;96258.06;5118274;28;20191;-45
2022/03/14 09:13:53;;;;;;;1.20;1.10;;;;;;;22.26;38.38;96262.53;5118092;28;20179;-47
2022/03/14 09:16:19;;;;;;;0.95;0.95;;;;;;;22.37;38.45;96260.09;5118146;28;20217;-46
2022/03/14 09:18:45;;;;;;;2.58;1.30;;;;;;;22.86;37.53;96259.31;5118382;28;20215;-48
2022/03/14 09:21:12;;;;;;;3.20;2.00;;;;;;;22.93;37.46;96259.03;5118091;28;20179;-48
2022/03/14 09:23:38;;;;;;;1.98;1.15;;;;;;;22.92;38.65;96260.28;5136141;28;20199;-47
2022/03/14 09:26:03;;;;;;;3.08;1.10;;;;;;;23.25;37.23;96266.84;5118182;28;20240;-45
2022/03/14 09:28:29;;;;;;;0.88;0.88;;;;;;;23.17;37.46;96271.13;5117920;28;20260;-59
2022/03/14 09:30:55;;;;;;;1.30;1.15;;;;;;;23.18;37.42;96275.47;5118401;28;20548;-46
2022/03/14 09:33:21;;;;;;;1.13;1.02;;;;;;;23.35;37.19;96269.19;5136061;28;20233;-49
2022/03/14 09:35:47;;;;;;;3.30;1.27;;;;;;;23.00;37.98;96281.03;5118180;28;20187;-43
2022/03/14 09:38:14;;;;;;;2.40;2.20;;;;;;;23.56;37.62;96278.63;5117559;28;20186;-44
2022/03/14 09:40:43;;;;;;;1.63;1.50;;;;;;;23.52;36.21;96275.97;5118085;28;20199;-47
2022/03/14 09:43:09;;;;;;;1.40;1.20;;;;;;;23.24;36.61;96284.81;5117969;28;20200;-47
2022/03/14 09:45:36;;;;;;;3.80;1.50;;;;;;;22.46;39.17;96285.22;5117861;28;20281;-49
2022/03/14 09:48:03;;;;;;;1.67;1.30;;;;;;;22.77;38.38;96279.59;5118049;28;20179;-58
2022/03/14 09:50:37;;;;;;;1.17;1.08;;;;;;;22.48;38.57;96284.00;5118107;28;20231;-47
2022/03/14 09:53:05;;;;;;;3.80;1.30;;;;;;;22.85;37.82;96280.84;5116456;28;20185;-45
2022/03/14 09:55:35;;;;;;;1.60;1.23;;;;;;;23.11;37.73;96281.34;5117654;28;20179;-46
2022/03/14 09:58:01;;;;;;;1.40;1.30;;;;;;;22.68;38.33;96284.38;5117721;28;20182;-44
2022/03/14 10:00:26;;;;;;;1.38;1.27;;;;;;;21.26;40.58;96284.59;5117388;28;20179;-43
2022/03/14 10:02:52;;;;;;;2.25;2.00;;;;;;;21.96;40.16;96284.84;5117195;28;20199;-43
2022/03/14 10:05:19;;;;;;;6.78;2.22;;;;;;;22.26;39.04;96284.03;5118204;28;20180;-56
2022/03/14 10:07:45;;;;;;;9.98;2.45;;;;;;;20.45;42.07;96298.44;5117764;28;20222;-47
2022/03/14 10:10:12;;;;;;;4.37;1.83;;;;;;;20.65;43.19;96301.72;5118026;28;20193;-57
2022/03/14 10:12:38;;;;;;;2.40;1.53;;;;;;;20.41;43.45;96295.00;5117483;28;20187;-49
2022/03/14 10:15:05;;;;;;;4.83;1.33;;;;;;;21.72;41.40;96290.09;5117327;28;20239;-52
2022/03/14 10:17:32;;;;;;;6.60;1.43;;;;;;;22.48;40.02;96284.78;5117035;28;20217;-54
2022/03/14 10:20:00;;;;;;;4.63;1.20;;;;;;;23.08;38.54;96287.88;5117563;28;20210;-52
2022/03/14 10:22:33;;;;;;;4.80;1.30;;;;;;;23.54;37.16;96283.88;5117228;28;20209;-53
2022/03/14 10:25:10;;;;;;;2.17;1.38;;;;;;;23.59;36.21;96288.81;5117467;28;20179;-59
2022/03/14 10:27:37;;;;;;;3.58;1.30;;;;;;;23.68;36.50;96292.41;5116878;28;20187;-60
2022/03/14 10:30:04;;;;;;;1.70;1.30;;;;;;;23.94;36.13;96304.00;5116807;28;20191;-57
2022/03/14 10:32:30;;;;;;;1.60;1.50;;;;;;;24.04;35.96;96294.38;5116763;28;20197;-59
2022/03/14 10:34:59;;;;;;;4.15;1.90;;;;;;;24.03;36.09;96290.00;5117440;28;20270;-59
2022/03/14 10:37:27;;;;;;;3.55;2.17;;;;;;;24.33;35.53;96294.59;5116975;28;20187;-58
2022/03/14 10:40:11;;;;;;;1.70;1.35;;;;;;;24.45;35.38;96304.78;5116805;28;20235;-59
2022/03/14 10:42:38;;;;;;;2.25;1.67;;;;;;;24.51;34.84;96297.31;5116901;28;20202;-55
2022/03/14 10:45:11;;;;;;;2.10;1.90;;;;;;;24.91;33.97;96286.59;5117106;28;20265;-54
2022/03/14 10:47:37;;;;;;;2.47;1.67;;;;;;;24.78;33.56;96288.81;5117313;28;20193;-56
2022/03/14 10:50:03;;;;;;;1.70;1.35;;;;;;;24.51;34.15;96291.72;5112448;28;20303;-56
2022/03/14 10:52:28;;;;;;;5.95;1.95;;;;;;;24.29;34.74;96296.78;5095479;28;20200;-57
2022/03/14 10:54:55;;;;;;;2.22;2.03;;;;;;;24.60;34.67;96295.25;5112602;28;20194;-57
2022/03/14 10:57:26;;;;;;;4.32;2.53;;;;;;;25.59;33.09;96285.47;5095504;28;20255;-57
2022/03/14 10:59:53;;;;;;;2.20;1.58;;;;;;;25.21;33.26;96299.44;5095521;28;20207;-54
2022/03/14 11:02:21;;;;;;;1.70;1.60;;;;;;;25.39;33.18;96293.75;5095516;28;20203;-57
2022/03/14 11:04:55;;;;;;;2.25;1.20;;;;;;;24.33;33.86;96300.19;5095217;28;20381;-56
2022/03/14 11:07:24;;;;;;;2.08;1.20;;;;;;;24.56;33.96;96305.06;5095643;28;20180;-57
2022/03/14 11:09:57;;;;;;;2.50;1.10;;;;;;;25.17;33.25;96313.59;5095612;28;20204;-57
2022/03/14 11:12:25;;;;;;;3.53;1.23;;;;;;;25.22;31.80;96306.56;5095150;28;20332;-55
2022/03/14 11:15:00;;;;;;;2.10;1.13;;;;;;;24.51;33.22;96314.09;5112257;28;20298;-58
2022/03/14 11:17:28;;;;;;;5.03;3.28;;;;;;;24.20;34.40;96316.34;5095885;28;20179;-59
2022/03/14 11:19:54;;;;;;;2.10;1.20;;;;;;;24.11;34.61;96308.00;5095675;28;20208;-46
2022/03/14 11:22:21;;;;;;;1.63;1.52;;;;;;;23.34;35.32;96311.47;5116109;28;20270;-49